Time;durP1;ratioP1;P1;durP2;ratioP2;P2;SDS_P1;SDS_P2;PMS_P1;PMS_P2;Temp;Humidity;BMP_temperature;BMP_pressure;BME280_temperature;BME280_humidity;BME280_pressure;Samples;Min_cycle;Max_cycle;Signal;HPM_P1;HPM_P2
2023/01/19 00:00:56;;;;;;;;;;;;;;;;;;5033445;28;1287;-75
2023/01/19 00:03:21;;;;;;;;;;;;;;;;;;5034487;28;908;-74
2023/01/19 00:05:47;;;;;;;;;;;;;;;;;;5033261;28;1910;-74
2023/01/19 00:08:15;;;;;;;;;;;;;;;;;;5033279;28;889;-74
2023/01/19 00:10:41;;;;;;;;;;;;;;;;;;5032984;28;1346;-75
2023/01/19 00:13:07;;;;;;;;;;;;;;;;;;5032638;28;1366;-71
2023/01/19 00:15:32;;;;;;;;;;;;;;;;;;5033405;28;1070;-72
2023/01/19 00:17:57;;;;;;;;;;;;;;;;;;5033846;28;1044;-72
2023/01/19 00:20:23;;;;;;;;;;;;;;;;;;5033458;28;877;-72
2023/01/19 00:22:49;;;;;;;;;;;;;;;;;;5032179;28;1219;-72
2023/01/19 00:25:15;;;;;;;;;;;;;;;;;;5032768;28;1955;-72
2023/01/19 00:27:40;;;;;;;;;;;;;;;;;;5032989;28;841;-72
2023/01/19 00:30:06;;;;;;;;;;;;;;;;;;5032032;28;926;-71
2023/01/19 00:32:31;;;;;;;;;;;;;;;;;;5014565;28;1368;-71
2023/01/19 00:34:56;;;;;;;;;;;;;;;;;;5015163;28;1299;-72
2023/01/19 00:37:22;;;;;;;;;;;;;;;;;;5031224;28;1531;-71
2023/01/19 00:39:47;;;;;;;;;;;;;;;;;;5031633;28;1298;-72
2023/01/19 00:44:56;;;;;;;;;;;;;;;;;;5032793;28;1945;-71
2023/01/19 00:47:22;;;;;;;;;;;;;;;;;;5014860;28;1249;-72
2023/01/19 00:49:47;;;;;;;;;;;;;;;;;;5031750;28;1321;-71
2023/01/19 00:52:13;;;;;;;;;;;;;;;;;;5032091;28;887;-72
2023/01/19 00:54:38;;;;;;;;;;;;;;;;;;5031259;28;944;-72
2023/01/19 00:57:03;;;;;;;;;;;;;;;;;;5031423;28;900;-72
2023/01/19 00:59:29;;;;;;;;;;;;;;;;;;5014431;28;1326;-71
2023/01/19 01:01:54;;;;;;;;;;;;;;;;;;5033086;28;789;-74
2023/01/19 01:04:19;;;;;;;;;;;;;;;;;;5029783;28;1971;-75
2023/01/19 01:06:44;;;;;;;;;;;;;;;;;;5032092;28;1102;-74
2023/01/19 01:09:13;;;;;;;;;;;;;;;;;;5031608;28;1307;-74
2023/01/19 01:11:39;;;;;;;;;;;;;;;;;;5033110;28;886;-74
2023/01/19 01:14:04;;;;;;;;;;;;;;;;;;5031661;28;1084;-74
2023/01/19 01:16:30;;;;;;;;;;;;;;;;;;5029497;28;1302;-74
2023/01/19 01:18:55;;;;;;;;;;;;;;;;;;5012777;28;1409;-74
2023/01/19 01:21:20;;;;;;;;;;;;;;;;;;5031862;28;1216;-71
2023/01/19 01:23:46;;;;;;;;;;;;;;;;;;5014092;28;1961;-71
2023/01/19 01:26:11;;;;;;;;;;;;;;;;;;5030725;28;956;-71
2023/01/19 01:28:36;;;;;;;;;;;;;;;;;;5014404;28;1039;-72
2023/01/19 01:31:02;;;;;;;;;;;;;;;;;;5014279;28;1192;-72
2023/01/19 01:33:27;;;;;;;;;;;;;;;;;;5032268;28;884;-71
2023/01/19 01:35:52;;;;;;;;;;;;;;;;;;5031358;28;1196;-71
2023/01/19 01:38:18;;;;;;;;;;;;;;;;;;5014297;28;1228;-71
2023/01/19 01:40:43;;;;;;;;;;;;;;;;;;5032166;28;825;-72
2023/01/19 01:43:12;;;;;;;;;;;;;;;;;;5014679;28;1235;-72
2023/01/19 01:45:39;;;;;;;;;;;;;;;;;;5032172;28;1910;-74
2023/01/19 01:48:17;;;;;;;;;;;;;;;;;;5031518;28;1271;-74
2023/01/19 01:51:22;;;;;;;;;;;;;;;;;;5031180;28;1205;-74
2023/01/19 01:53:32;;;;;;;;;;;;;;;;;;5032628;28;932;-74
2023/01/19 01:55:58;;;;;;;;;;;;;;;;;;5032935;28;852;-74
2023/01/19 01:58:24;;;;;;;;;;;;;;;;;;5030791;28;1448;-74
2023/01/19 02:03:33;;;;;;;;;;;;;;;;;;5030992;28;683;-74
2023/01/19 02:06:00;;;;;;;;;;;;;;;;;;5031584;28;1918;-74
2023/01/19 02:14:13;;;;;;;;;;;;;;;;;;5031828;28;696;-74
2023/01/19 02:16:38;;;;;;;;;;;;;;;;;;5014081;28;1291;-74
2023/01/19 02:19:04;;;;;;;;;;;;;;;;;;5030744;28;1144;-76
2023/01/19 02:21:51;;;;;;;;;;;;;;;;;;5035285;28;979;-74
2023/01/19 02:24:16;;;;;;;;;;;;;;;;;;5033784;28;1963;-74
2023/01/19 02:26:44;;;;;;;;;;;;;;;;;;5035395;28;871;-74
2023/01/19 02:29:10;;;;;;;;;;;;;;;;;;5033994;28;1213;-74
2023/01/19 02:31:37;;;;;;;;;;;;;;;;;;5034992;28;952;-75
2023/01/19 02:34:03;;;;;;;;;;;;;;;;;;5035664;28;1029;-74
2023/01/19 02:36:37;;;;;;;;;;;;;;;;;;5035426;28;1311;-74
2023/01/19 02:39:03;;;;;;;;;;;;;;;;;;5041329;28;1210;-74
2023/01/19 02:41:31;;;;;;;;;;;;;;;;;;5042495;28;1007;-74
2023/01/19 02:43:57;;;;;;;;;;;;;;;;;;5040815;28;1957;-74
2023/01/19 02:46:22;;;;;;;;;;;;;;;;;;5037404;28;1342;-74
2023/01/19 02:48:48;;;;;;;;;;;;;;;;;;5020252;28;1256;-74
2023/01/19 02:51:15;;;;;;;;;;;;;;;;;;5035290;28;1075;-75
2023/01/19 02:53:59;;;;;;;;;;;;;;;;;;5036133;28;1344;-73
2023/01/19 02:56:44;;;;;;;;;;;;;;;;;;5036728;28;873;-74
2023/01/19 02:59:10;;;;;;;;;;;;;;;;;;5036334;28;920;-74
2023/01/19 03:01:41;;;;;;;;;;;;;;;;;;5036436;28;884;-74
2023/01/19 03:04:22;;;;;;;;;;;;;;;;;;5035907;28;1906;-74
2023/01/19 03:06:52;;;;;;;;;;;;;;;;;;5034861;28;1398;-74
2023/01/19 03:09:40;;;;;;;;;;;;;;;;;;5034526;28;1349;-74
2023/01/19 03:12:08;;;;;;;;;;;;;;;;;;5035976;28;1266;-74
2023/01/19 03:14:40;;;;;;;;;;;;;;;;;;5034257;28;1184;-74
2023/01/19 03:17:06;;;;;;;;;;;;;;;;;;5035075;28;889;-74
2023/01/19 03:19:35;;;;;;;;;;;;;;;;;;5034243;28;1227;-74
2023/01/19 03:22:07;;;;;;;;;;;;;;;;;;5033392;28;1295;-75
2023/01/19 03:24:35;;;;;;;;;;;;;;;;;;5032971;28;1906;-74
2023/01/19 03:27:08;;;;;;;;;;;;;;;;;;5037844;28;836;-76
2023/01/19 03:29:35;;;;;;;;;;;;;;;;;;5037159;28;1192;-74
2023/01/19 03:32:02;;;;;;;;;;;;;;;;;;5021107;28;1339;-74
2023/01/19 03:34:28;;;;;;;;;;;;;;;;;;5037705;28;1180;-74
2023/01/19 03:36:56;;;;;;;;;;;;;;;;;;5037901;28;1315;-74
2023/01/19 03:39:23;;;;;;;;;;;;;;;;;;5039302;28;1124;-74
2023/01/19 03:41:50;;;;;;;;;;;;;;;;;;5022549;28;1552;-74
2023/01/19 03:44:16;;;;;;;;;;;;;;;;;;5039966;28;1931;-74
2023/01/19 03:46:41;;;;;;;;;;;;;;;;;;5039729;28;1172;-74
2023/01/19 03:49:07;;;;;;;;;;;;;;;;;;5021957;28;1233;-74
2023/01/19 03:51:36;;;;;;;;;;;;;;;;;;5036995;28;1208;-74
2023/01/19 03:54:02;;;;;;;;;;;;;;;;;;5039354;28;1602;-75
2023/01/19 03:56:28;;;;;;;;;;;;;;;;;;5037264;28;953;-71
2023/01/19 03:58:53;;;;;;;;;;;;;;;;;;5035728;28;955;-71
2023/01/19 04:01:21;;;;;;;;;;;;;;;;;;5034494;28;1264;-72
2023/01/19 04:03:47;;;;;;;;;;;;;;;;;;5032411;28;1178;-71
2023/01/19 04:06:12;;;;;;;;;;;;;;;;;;5033565;28;1937;-72
2023/01/19 04:08:39;;;;;;;;;;;;;;;;;;5033832;28;944;-72
2023/01/19 04:11:04;;;;;;;;;;;;;;;;;;5033701;28;849;-72
2023/01/19 04:13:30;;;;;;;;;;;;;;;;;;5033983;28;789;-72
2023/01/19 04:16:00;;;;;;;;;;;;;;;;;;5032032;28;868;-73
2023/01/19 04:18:25;;;;;;;;;;;;;;;;;;5033678;28;986;-72
2023/01/19 04:20:50;;;;;;;;;;;;;;;;;;5031892;28;1363;-72
2023/01/19 04:23:16;;;;;;;;;;;;;;;;;;5015484;28;1389;-72
2023/01/19 04:25:41;;;;;;;;;;;;;;;;;;5015865;28;1926;-72
2023/01/19 04:28:06;;;;;;;;;;;;;;;;;;5016437;28;1418;-75
2023/01/19 04:30:31;;;;;;;;;;;;;;;;;;5033962;28;825;-75
2023/01/19 04:33:00;;;;;;;;;;;;;;;;;;5033574;28;892;-75
2023/01/19 04:35:25;;;;;;;;;;;;;;;;;;5033809;28;1192;-75
2023/01/19 04:37:50;;;;;;;;;;;;;;;;;;5033444;28;844;-75
2023/01/19 04:40:16;;;;;;;;;;;;;;;;;;5032973;28;857;-75
2023/01/19 04:42:44;;;;;;;;;;;;;;;;;;5034915;28;1009;-75
2023/01/19 04:45:10;;;;;;;;;;;;;;;;;;5032496;28;1902;-74
2023/01/19 04:47:36;;;;;;;;;;;;;;;;;;5033386;28;949;-74
2023/01/19 04:50:01;;;;;;;;;;;;;;;;;;5033532;28;865;-75
2023/01/19 04:52:35;;;;;;;;;;;;;;;;;;5033545;28;952;-74
2023/01/19 04:55:01;;;;;;;;;;;;;;;;;;5032065;28;1286;-74
2023/01/19 04:57:27;;;;;;;;;;;;;;;;;;5032356;28;1358;-74
2023/01/19 04:59:52;;;;;;;;;;;;;;;;;;5015664;28;1306;-74
2023/01/19 05:02:17;;;;;;;;;;;;;;;;;;5032134;28;963;-74
2023/01/19 05:04:43;;;;;;;;;;;;;;;;;;5032203;28;1918;-74
2023/01/19 05:07:09;;;;;;;;;;;;;;;;;;5033264;28;1106;-74
2023/01/19 05:09:34;;;;;;;;;;;;;;;;;;5016691;28;1393;-74
2023/01/19 05:11:59;;;;;;;;;;;;;;;;;;5038028;28;1260;-75
2023/01/19 05:14:25;;;;;;;;;;;;;;;;;;5015507;28;1223;-75
2023/01/19 05:16:50;;;;;;;;;;;;;;;;;;5031844;28;1272;-75
2023/01/19 05:19:15;;;;;;;;;;;;;;;;;;5031729;28;912;-75
2023/01/19 05:21:40;;;;;;;;;;;;;;;;;;5031304;28;1255;-76
2023/01/19 05:24:06;;;;;;;;;;;;;;;;;;5032537;28;1964;-75
2023/01/19 05:26:31;;;;;;;;;;;;;;;;;;5032482;28;995;-75
2023/01/19 05:28:56;;;;;;;;;;;;;;;;;;5014963;28;1356;-75
2023/01/19 05:31:22;;;;;;;;;;;;;;;;;;5015039;28;1290;-76
2023/01/19 05:33:47;;;;;;;;;;;;;;;;;;5031031;28;916;-76
2023/01/19 05:36:13;;;;;;;;;;;;;;;;;;5032960;28;946;-75
2023/01/19 05:38:38;;;;;;;;;;;;;;;;;;5032659;28;967;-75
2023/01/19 05:41:03;;;;;;;;;;;;;;;;;;5014640;28;1127;-75
2023/01/19 05:43:29;;;;;;;;;;;;;;;;;;5031481;28;856;-75
2023/01/19 05:45:54;;;;;;;;;;;;;;;;;;5031005;28;1961;-75
2023/01/19 05:48:19;;;;;;;;;;;;;;;;;;5015184;28;1359;-75
2023/01/19 05:50:45;;;;;;;;;;;;;;;;;;5031443;28;904;-75
2023/01/19 05:53:10;;;;;;;;;;;;;;;;;;5032624;28;1042;-75
2023/01/19 05:55:35;;;;;;;;;;;;;;;;;;5031436;28;1225;-75
2023/01/19 05:58:00;;;;;;;;;;;;;;;;;;5030379;28;1176;-75
2023/01/19 06:00:26;;;;;;;;;;;;;;;;;;5029138;28;1178;-75
2023/01/19 06:02:52;;;;;;;;;;;;;;;;;;5032458;28;1161;-74
2023/01/19 06:05:17;;;;;;;;;;;;;;;;;;5032859;28;1955;-74
2023/01/19 06:07:43;;;;;;;;;;;;;;;;;;5030945;28;1220;-74
2023/01/19 06:10:08;;;;;;;;;;;;;;;;;;5015019;28;1351;-74
2023/01/19 06:12:34;;;;;;;;;;;;;;;;;;5030962;28;1214;-75
2023/01/19 06:14:59;;;;;;;;;;;;;;;;;;5030742;28;1206;-74
2023/01/19 06:17:24;;;;;;;;;;;;;;;;;;5030955;28;888;-75
2023/01/19 06:19:49;;;;;;;;;;;;;;;;;;5014434;28;1219;-74
2023/01/19 06:22:15;;;;;;;;;;;;;;;;;;5031024;28;1272;-75
2023/01/19 06:24:40;;;;;;;;;;;;;;;;;;5014496;28;1918;-74
2023/01/19 06:27:05;;;;;;;;;;;;;;;;;;5030734;28;893;-74
2023/01/19 06:29:31;;;;;;;;;;;;;;;;;;5030500;28;1394;-75
2023/01/19 06:31:56;;;;;;;;;;;;;;;;;;5030778;28;1315;-74
2023/01/19 06:34:25;;;;;;;;;;;;;;;;;;5014347;28;1454;-74
2023/01/19 06:36:51;;;;;;;;;;;;;;;;;;5014902;28;1449;-75
2023/01/19 06:39:17;;;;;;;;;;;;;;;;;;5014500;28;1242;-76
2023/01/19 06:41:42;;;;;;;;;;;;;;;;;;5030725;28;994;-76
2023/01/19 06:44:08;;;;;;;;;;;;;;;;;;5030455;28;1898;-76
2023/01/19 06:46:34;;;;;;;;;;;;;;;;;;5030580;28;1255;-76
2023/01/19 06:49:00;;;;;;;;;;;;;;;;;;5031625;28;857;-76
2023/01/19 06:51:25;;;;;;;;;;;;;;;;;;5032492;28;992;-76
2023/01/19 06:53:52;;;;;;;;;;;;;;;;;;5030925;28;1335;-76
2023/01/19 06:56:18;;;;;;;;;;;;;;;;;;5014333;28;1274;-76
2023/01/19 06:58:45;;;;;;;;;;;;;;;;;;5031341;28;1015;-76
2023/01/19 07:01:10;;;;;;;;;;;;;;;;;;5032267;28;1187;-76
2023/01/19 07:03:37;;;;;;;;;;;;;;;;;;5034293;28;1199;-75
2023/01/19 07:06:05;;;;;;;;;;;;;;;;;;5033838;28;1918;-75
2023/01/19 07:08:30;;;;;;;;;;;;;;;;;;5017985;28;1220;-76
2023/01/19 07:11:01;;;;;;;;;;;;;;;;;;5035580;28;903;-76
2023/01/19 07:13:27;;;;;;;;;;;;;;;;;;5033777;28;888;-75
2023/01/19 07:15:52;;;;;;;;;;;;;;;;;;5017925;28;1172;-76
2023/01/19 07:18:18;;;;;;;;;;;;;;;;;;5035465;28;884;-76
2023/01/19 07:20:45;;;;;;;;;;;;;;;;;;5034074;28;916;-75
2023/01/19 07:23:10;;;;;;;;;;;;;;;;;;5033985;28;884;-76
2023/01/19 07:25:37;;;;;;;;;;;;;;;;;;5033550;28;1905;-75
2023/01/19 07:28:02;;;;;;;;;;;;;;;;;;5034318;28;830;-76
2023/01/19 07:30:27;;;;;;;;;;;;;;;;;;5033883;28;1116;-75
2023/01/19 07:32:56;;;;;;;;;;;;;;;;;;5017745;28;1223;-75
2023/01/19 07:35:22;;;;;;;;;;;;;;;;;;5035071;28;833;-76
2023/01/19 07:37:47;;;;;;;;;;;;;;;;;;5035538;28;915;-76
2023/01/19 07:40:12;;;;;;;;;;;;;;;;;;5033677;28;1176;-76
2023/01/19 07:42:38;;;;;;;;;;;;;;;;;;5035133;28;887;-76
2023/01/19 07:45:03;;;;;;;;;;;;;;;;;;5033055;28;1930;-75
2023/01/19 07:47:28;;;;;;;;;;;;;;;;;;5033412;28;1123;-75
2023/01/19 07:49:54;;;;;;;;;;;;;;;;;;5033577;28;1294;-75
2023/01/19 07:52:20;;;;;;;;;;;;;;;;;;5033231;28;1208;-75
2023/01/19 07:54:45;;;;;;;;;;;;;;;;;;5033304;28;1271;-75
2023/01/19 07:57:10;;;;;;;;;;;;;;;;;;5016255;28;1383;-75
2023/01/19 07:59:36;;;;;;;;;;;;;;;;;;5032862;28;994;-75
2023/01/19 08:02:01;;;;;;;;;;;;;;;;;;5032393;28;1315;-74
2023/01/19 08:04:26;;;;;;;;;;;;;;;;;;5032369;28;1911;-75
2023/01/19 08:06:52;;;;;;;;;;;;;;;;;;5033652;28;1205;-75
2023/01/19 08:09:17;;;;;;;;;;;;;;;;;;5032795;28;1338;-75
2023/01/19 08:11:42;;;;;;;;;;;;;;;;;;5033419;28;885;-75
2023/01/19 08:14:08;;;;;;;;;;;;;;;;;;5015861;28;1141;-75
2023/01/19 08:16:33;;;;;;;;;;;;;;;;;;5032534;28;865;-74
2023/01/19 08:18:59;;;;;;;;;;;;;;;;;;5032530;28;914;-75
2023/01/19 08:21:24;;;;;;;;;;;;;;;;;;5032361;28;1184;-75
2023/01/19 08:23:56;;;;;;;;;;;;;;;;;;5033164;28;911;-75
2023/01/19 08:26:29;;;;;;;;;;;;;;;;;;5032013;28;1951;-75
2023/01/19 08:28:56;;;;;;;;;;;;;;;;;;5033668;28;822;-75
2023/01/19 08:31:22;;;;;;;;;;;;;;;;;;5031852;28;1314;-75
2023/01/19 08:33:47;;;;;;;;;;;;;;;;;;5032662;28;1192;-75
2023/01/19 08:36:12;;;;;;;;;;;;;;;;;;5033402;28;1058;-75
2023/01/19 08:38:43;;;;;;;;;;;;;;;;;;5015966;28;1278;-74
2023/01/19 08:41:09;;;;;;;;;;;;;;;;;;5032059;28;1231;-75
2023/01/19 08:43:34;;;;;;;;;;;;;;;;;;5032431;28;1141;-75
2023/01/19 08:45:59;;;;;;;;;;;;;;;;;;5015478;28;1952;-75
2023/01/19 08:48:25;;;;;;;;;;;;;;;;;;5031449;28;1413;-75
2023/01/19 08:50:50;;;;;;;;;;;;;;;;;;5033426;28;880;-75
2023/01/19 08:53:16;;;;;;;;;;;;;;;;;;5032896;28;904;-75
2023/01/19 08:55:41;;;;;;;;;;;;;;;;;;5015218;28;1248;-75
2023/01/19 08:58:07;;;;;;;;;;;;;;;;;;5032800;28;872;-75
2023/01/19 09:00:33;;;;;;;;;;;;;;;;;;5031914;28;1331;-74
2023/01/19 09:03:01;;;;;;;;;;;;;;;;;;5032392;28;1192;-74
2023/01/19 09:05:27;;;;;;;;;;;;;;;;;;5032024;28;1965;-74
2023/01/19 09:07:52;;;;;;;;;;;;;;;;;;5033947;28;1260;-74
2023/01/19 09:10:18;;;;;;;;;;;;;;;;;;5032432;28;1285;-75
2023/01/19 09:12:45;;;;;;;;;;;;;;;;;;5031697;28;1318;-74
2023/01/19 09:15:12;;;;;;;;;;;;;;;;;;5033146;28;821;-75
2023/01/19 09:17:38;;;;;;;;;;;;;;;;;;5031873;28;1444;-75
2023/01/19 09:20:04;;;;;;;;;;;;;;;;;;5033431;28;809;-74
2023/01/19 09:22:30;;;;;;;;;;;;;;;;;;5032611;28;891;-72
2023/01/19 09:24:55;;;;;;;;;;;;;;;;;;5029059;28;1925;-72
2023/01/19 09:27:20;;;;;;;;;;;;;;;;;;5013887;28;1484;-72
2023/01/19 09:29:51;;;;;;;;;;;;;;;;;;5031234;28;1392;-72
2023/01/19 09:32:17;;;;;;;;;;;;;;;;;;5030463;28;1269;-72
2023/01/19 09:34:42;;;;;;;;;;;;;;;;;;5031158;28;1498;-75
2023/01/19 09:37:08;;;;;;;;;;;;;;;;;;5032527;28;853;-75
2023/01/19 09:39:33;;;;;;;;;;;;;;;;;;5014587;28;1223;-75
2023/01/19 09:42:06;;;;;;;;;;;;;;;;;;5031589;28;1020;-73
2023/01/19 09:44:33;;;;;;;;;;;;;;;;;;5031346;28;1894;-76
2023/01/19 09:47:00;;;;;;;;;;;;;;;;;;5031266;28;1188;-73
2023/01/19 09:49:29;;;;;;;;;;;;;;;;;;5030538;28;1395;-72
2023/01/19 09:51:54;;;;;;;;;;;;;;;;;;5032413;28;975;-76
2023/01/19 09:54:28;;;;;;;;;;;;;;;;;;5030954;28;1302;-75
2023/01/19 09:56:54;;;;;;;;;;;;;;;;;;5031187;28;1526;-73
2023/01/19 09:59:24;;;;;;;;;;;;;;;;;;5030842;28;1196;-74
2023/01/19 10:02:01;;;;;;;;;;;;;;;;;;5032431;28;861;-74
2023/01/19 10:04:36;;;;;;;;;;;;;;;;;;5032285;28;1906;-74
2023/01/19 10:07:12;;;;;;;;;;;;;;;;;;5030466;28;1279;-74
2023/01/19 10:09:55;;;;;;;;;;;;;;;;;;5032476;28;857;-75
2023/01/19 10:12:36;;;;;;;;;;;;;;;;;;5030747;28;1509;-74
2023/01/19 10:15:14;;;;;;;;;;;;;;;;;;5030931;28;1401;-75
2023/01/19 10:17:49;;;;;;;;;;;;;;;;;;5031061;28;1147;-75
2023/01/19 10:20:21;;;;;;;;;;;;;;;;;;5030597;28;1274;-75
2023/01/19 10:22:47;;;;;;;;;;;;;;;;;;5032625;28;837;-75
2023/01/19 10:25:16;;;;;;;;;;;;;;;;;;5031156;28;1967;-75
2023/01/19 10:27:42;;;;;;;;;;;;;;;;;;5030532;28;1259;-75
2023/01/19 10:30:13;;;;;;;;;;;;;;;;;;5031185;28;963;-75
2023/01/19 10:32:39;;;;;;;;;;;;;;;;;;5030856;28;1203;-75
2023/01/19 10:35:20;;;;;;;;;;;;;;;;;;5014794;28;1263;-75
2023/01/19 10:37:46;;;;;;;;;;;;;;;;;;5036426;28;896;-75
2023/01/19 10:40:11;;;;;;;;;;;;;;;;;;5034398;28;1184;-74
2023/01/19 10:42:38;;;;;;;;;;;;;;;;;;5034589;28;1077;-74
2023/01/19 10:45:14;;;;;;;;;;;;;;;;;;5034304;28;1964;-74
2023/01/19 10:47:40;;;;;;;;;;;;;;;;;;5034557;28;1325;-73
2023/01/19 10:50:22;;;;;;;;;;;;;;;;;;5034188;28;1248;-74
2023/01/19 10:52:51;;;;;;;;;;;;;;;;;;5034321;28;1333;-74
2023/01/19 10:55:25;;;;;;;;;;;;;;;;;;5034079;28;1323;-74
2023/01/19 10:57:51;;;;;;;;;;;;;;;;;;5035604;28;993;-74
2023/01/19 11:00:36;;;;;;;;;;;;;;;;;;5035079;28;884;-74
2023/01/19 11:03:02;;;;;;;;;;;;;;;;;;5035442;28;916;-75
2023/01/19 11:05:29;;;;;;;;;;;;;;;;;;5035612;28;1906;-75
2023/01/19 11:07:55;;;;;;;;;;;;;;;;;;5034027;28;1196;-74
2023/01/19 11:10:21;;;;;;;;;;;;;;;;;;5033797;28;1244;-75
2023/01/19 11:12:55;;;;;;;;;;;;;;;;;;5033673;28;1234;-75
2023/01/19 11:15:27;;;;;;;;;;;;;;;;;;5034565;28;1077;-75
2023/01/19 11:17:52;;;;;;;;;;;;;;;;;;5034032;28;1241;-75
2023/01/19 11:20:23;;;;;;;;;;;;;;;;;;5033648;28;1330;-73
2023/01/19 11:23:02;;;;;;;;;;;;;;;;;;5035013;28;1177;-74
2023/01/19 11:25:30;;;;;;;;;;;;;;;;;;5033407;28;1910;-74
2023/01/19 11:27:56;;;;;;;;;;;;;;;;;;5033645;28;1278;-75
2023/01/19 11:30:25;;;;;;;;;;;;;;;;;;5033765;28;1219;-74
2023/01/19 11:32:51;;;;;;;;;;;;;;;;;;5034224;28;1320;-75
2023/01/19 11:35:32;;;;;;;;;;;;;;;;;;5034989;28;907;-74
2023/01/19 11:38:26;;;;;;;;;;;;;;;;;;5033618;28;1299;-75
2023/01/19 11:40:53;;;;;;;;;;;;;;;;;;5031632;28;1217;-75
2023/01/19 11:43:20;;;;;;;;;;;;;;;;;;5034842;28;1019;-73
2023/01/19 11:45:46;;;;;;;;;;;;;;;;;;5032862;28;1898;-72
2023/01/19 11:48:19;;;;;;;;;;;;;;;;;;5034109;28;829;-73
2023/01/19 11:50:44;;;;;;;;;;;;;;;;;;5034519;28;1046;-73
2023/01/19 11:53:13;;;;;;;;;;;;;;;;;;5032967;28;1290;-72
2023/01/19 11:56:05;;;;;;;;;;;;;;;;;;5034595;28;789;-72
2023/01/19 11:58:32;;;;;;;;;;;;;;;;;;5009970;28;1634;-72
2023/01/19 12:01:13;;;;;;;;;;;;;;;;;;5034543;28;892;-72
2023/01/19 12:03:51;;;;;;;;;;;;;;;;;;5034178;28;839;-72
2023/01/19 12:06:23;;;;;;;;;;;;;;;;;;5032737;28;1923;-72
2023/01/19 12:08:54;;;;;;;;;;;;;;;;;;5032553;28;1159;-72
2023/01/19 12:11:26;;;;;;;;;;;;;;;;;;5033637;28;971;-72
2023/01/19 12:13:52;;;;;;;;;;;;;;;;;;5032541;28;1493;-72
2023/01/19 12:16:21;;;;;;;;;;;;;;;;;;5033638;28;900;-72
2023/01/19 12:18:49;;;;;;;;;;;;;;;;;;5032704;28;1339;-72
2023/01/19 12:21:16;;;;;;;;;;;;;;;;;;5031933;28;1291;-73
2023/01/19 12:24:00;;;;;;;;;;;;;;;;;;5033341;28;864;-72
2023/01/19 12:26:28;;;;;;;;;;;;;;;;;;5031554;28;1968;-72
2023/01/19 12:28:57;;;;;;;;;;;;;;;;;;5033236;28;880;-72
2023/01/19 12:31:22;;;;;;;;;;;;;;;;;;5031925;28;1428;-71
2023/01/19 12:33:48;;;;;;;;;;;;;;;;;;5033282;28;911;-72
2023/01/19 12:36:37;;;;;;;;;;;;;;;;;;5015431;28;1188;-72
2023/01/19 12:39:15;;;;;;;;;;;;;;;;;;5031905;28;1416;-72
2023/01/19 12:41:41;;;;;;;;;;;;;;;;;;5033104;28;898;-72
2023/01/19 12:44:10;;;;;;;;;;;;;;;;;;5031960;28;1301;-72
2023/01/19 12:47:06;;;;;;;;;;;;;;;;;;5031482;28;1965;-72
2023/01/19 12:49:35;;;;;;;;;;;;;;;;;;5026854;28;1208;-73
2023/01/19 12:52:19;;;;;;;;;;;;;;;;;;5031118;28;1507;-72
2023/01/19 12:55:20;;;;;;;;;;;;;;;;;;5031132;28;1358;-72
2023/01/19 12:57:45;;;;;;;;;;;;;;;;;;4989883;28;1392;-71
2023/01/19 13:00:25;;;;;;;;;;;;;;;;;;5018401;28;1375;-72
2023/01/19 13:02:52;;;;;;;;;;;;;;;;;;5031377;28;1270;-72
2023/01/19 13:05:25;;;;;;;;;;;;;;;;;;5033099;28;1902;-72
2023/01/19 13:08:05;;;;;;;;;;;;;;;;;;5032784;28;1038;-73
2023/01/19 13:10:49;;;;;;;;;;;;;;;;;;5032414;28;1493;-76
2023/01/19 13:13:22;;;;;;;;;;;;;;;;;;5034035;28;881;-76
2023/01/19 13:15:47;;;;;;;;;;;;;;;;;;5032252;28;1219;-76
2023/01/19 13:18:27;;;;;;;;;;;;;;;;;;5033765;28;928;-76
2023/01/19 13:20:57;;;;;;;;;;;;;;;;;;5033935;28;865;-76
2023/01/19 13:23:27;;;;;;;;;;;;;;;;;;5031511;28;1199;-76
2023/01/19 13:25:57;;;;;;;;;;;;;;;;;;5033461;28;1914;-77
2023/01/19 13:28:29;;;;;;;;;;;;;;;;;;5033250;28;1143;-76
2023/01/19 13:30:57;;;;;;;;;;;;;;;;;;5031686;28;1215;-76
2023/01/19 13:33:24;;;;;;;;;;;;;;;;;;5031443;28;1211;-76
2023/01/19 13:36:09;;;;;;;;;;;;;;;;;;5034121;28;915;-76
2023/01/19 13:38:40;;;;;;;;;;;;;;;;;;5030266;28;1208;-76
2023/01/19 13:41:05;;;;;;;;;;;;;;;;;;5033064;28;1001;-76
2023/01/19 13:43:33;;;;;;;;;;;;;;;;;;5031028;28;896;-76
2023/01/19 13:45:59;;;;;;;;;;;;;;;;;;5031094;28;1901;-76
2023/01/19 13:48:24;;;;;;;;;;;;;;;;;;5031211;28;881;-76
2023/01/19 13:51:16;;;;;;;;;;;;;;;;;;5014569;28;1102;-75
2023/01/19 13:53:54;;;;;;;;;;;;;;;;;;5028103;28;1319;-76
2023/01/19 13:56:21;;;;;;;;;;;;;;;;;;5011763;28;1347;-76
2023/01/19 13:59:09;;;;;;;;;;;;;;;;;;5013158;28;1474;-76
2023/01/19 14:01:36;;;;;;;;;;;;;;;;;;5032050;28;1176;-76
2023/01/19 14:04:01;;;;;;;;;;;;;;;;;;5031802;28;1304;-77
2023/01/19 14:06:31;;;;;;;;;;;;;;;;;;5031160;28;1902;-77
2023/01/19 14:09:06;;;;;;;;;;;;;;;;;;5031097;28;1221;-77
2023/01/19 14:11:31;;;;;;;;;;;;;;;;;;5031062;28;1482;-77
2023/01/19 14:13:56;;;;;;;;;;;;;;;;;;5031447;28;900;-72
2023/01/19 14:16:24;;;;;;;;;;;;;;;;;;5013758;28;1331;-73
2023/01/19 14:19:03;;;;;;;;;;;;;;;;;;5031059;28;895;-72
2023/01/19 14:21:41;;;;;;;;;;;;;;;;;;5029864;28;1022;-72
2023/01/19 14:24:16;;;;;;;;;;;;;;;;;;5029666;28;1247;-73
2023/01/19 14:26:46;;;;;;;;;;;;;;;;;;5012986;28;1442;-73
2023/01/19 14:29:15;;;;;;;;;;;;;;;;;;5031107;28;825;-73
2023/01/19 14:31:45;;;;;;;;;;;;;;;;;;5031462;28;805;-73
2023/01/19 14:34:29;;;;;;;;;;;;;;;;;;5029372;28;1500;-73
2023/01/19 14:36:54;;;;;;;;;;;;;;;;;;5029572;28;1338;-73
2023/01/19 14:39:22;;;;;;;;;;;;;;;;;;5030076;28;1212;-73
2023/01/19 14:41:48;;;;;;;;;;;;;;;;;;5031154;28;925;-73
2023/01/19 14:44:27;;;;;;;;;;;;;;;;;;5029105;28;1134;-73
2023/01/19 14:46:53;;;;;;;;;;;;;;;;;;5031240;28;811;-73
2023/01/19 14:49:21;;;;;;;;;;;;;;;;;;5030586;28;1457;-73
2023/01/19 14:51:47;;;;;;;;;;;;;;;;;;5031578;28;840;-73
2023/01/19 14:54:22;;;;;;;;;;;;;;;;;;5031238;28;919;-73
2023/01/19 14:56:48;;;;;;;;;;;;;;;;;;5029885;28;1531;-73
2023/01/19 14:59:13;;;;;;;;;;;;;;;;;;5031230;28;853;-72
2023/01/19 15:01:38;;;;;;;;;;;;;;;;;;5012867;28;1340;-73
2023/01/19 15:04:04;;;;;;;;;;;;;;;;;;5029979;28;1224;-73
2023/01/19 15:06:33;;;;;;;;;;;;;;;;;;5030029;28;1914;-73
2023/01/19 15:09:01;;;;;;;;;;;;;;;;;;5031515;28;1213;-76
2023/01/19 15:11:31;;;;;;;;;;;;;;;;;;5031922;28;931;-76
2023/01/19 15:13:58;;;;;;;;;;;;;;;;;;5029646;28;1155;-77
2023/01/19 15:16:23;;;;;;;;;;;;;;;;;;5031098;28;1235;-77
2023/01/19 15:18:49;;;;;;;;;;;;;;;;;;5031170;28;829;-77
2023/01/19 15:21:15;;;;;;;;;;;;;;;;;;5033004;28;949;-77
2023/01/19 15:23:40;;;;;;;;;;;;;;;;;;5034174;28;907;-77
2023/01/19 15:26:06;;;;;;;;;;;;;;;;;;5033953;28;1946;-77
2023/01/19 15:28:31;;;;;;;;;;;;;;;;;;5033862;28;825;-77
2023/01/19 15:30:58;;;;;;;;;;;;;;;;;;5015985;28;1347;-77
2023/01/19 15:33:24;;;;;;;;;;;;;;;;;;5033746;28;903;-77
2023/01/19 15:35:50;;;;;;;;;;;;;;;;;;5033412;28;884;-77
2023/01/19 15:38:15;;;;;;;;;;;;;;;;;;5032254;28;1131;-77
2023/01/19 15:40:41;;;;;;;;;;;;;;;;;;5033782;28;1378;-76
2023/01/19 15:43:08;;;;;;;;;;;;;;;;;;5036673;28;940;-77
2023/01/19 15:45:35;;;;;;;;;;;;;;;;;;5034548;28;1910;-75
2023/01/19 15:48:02;;;;;;;;;;;;;;;;;;5032429;28;1365;-76
2023/01/19 15:50:28;;;;;;;;;;;;;;;;;;5033343;28;1476;-75
2023/01/19 15:52:53;;;;;;;;;;;;;;;;;;5034012;28;876;-73
2023/01/19 15:55:18;;;;;;;;;;;;;;;;;;5032594;28;1319;-73
2023/01/19 15:57:45;;;;;;;;;;;;;;;;;;5034742;28;985;-76
2023/01/19 16:00:10;;;;;;;;;;;;;;;;;;5033339;28;1574;-76
2023/01/19 16:02:36;;;;;;;;;;;;;;;;;;5032114;28;1173;-75
2023/01/19 16:05:01;;;;;;;;;;;;;;;;;;5032527;28;1886;-75
2023/01/19 16:07:27;;;;;;;;;;;;;;;;;;5015219;28;1272;-75
2023/01/19 16:09:52;;;;;;;;;;;;;;;;;;5033732;28;1201;-75
2023/01/19 16:12:17;;;;;;;;;;;;;;;;;;5032073;28;1213;-75
2023/01/19 16:14:43;;;;;;;;;;;;;;;;;;5031402;28;1502;-75
2023/01/19 16:17:08;;;;;;;;;;;;;;;;;;5032658;28;1417;-75
2023/01/19 16:19:33;;;;;;;;;;;;;;;;;;5031836;28;1224;-75
2023/01/19 16:21:58;;;;;;;;;;;;;;;;;;5033771;28;842;-75
2023/01/19 16:24:24;;;;;;;;;;;;;;;;;;5015550;28;1910;-75
2023/01/19 16:26:49;;;;;;;;;;;;;;;;;;5032263;28;1216;-76
2023/01/19 16:29:15;;;;;;;;;;;;;;;;;;5033773;28;1157;-75
2023/01/19 16:31:41;;;;;;;;;;;;;;;;;;5031320;28;1137;-74
2023/01/19 16:34:07;;;;;;;;;;;;;;;;;;5030338;28;1299;-75
2023/01/19 16:36:33;;;;;;;;;;;;;;;;;;5016564;28;1310;-74
2023/01/19 16:39:00;;;;;;;;;;;;;;;;;;5032607;28;1231;-75
2023/01/19 16:41:26;;;;;;;;;;;;;;;;;;5032651;28;1219;-75
2023/01/19 16:43:55;;;;;;;;;;;;;;;;;;5034171;28;913;-75
2023/01/19 16:46:24;;;;;;;;;;;;;;;;;;5034039;28;1956;-74
2023/01/19 16:48:50;;;;;;;;;;;;;;;;;;5032298;28;1251;-75
2023/01/19 16:51:15;;;;;;;;;;;;;;;;;;5015901;28;1402;-75
2023/01/19 16:53:40;;;;;;;;;;;;;;;;;;5032749;28;845;-75
2023/01/19 16:56:06;;;;;;;;;;;;;;;;;;5032395;28;1461;-76
2023/01/19 16:58:31;;;;;;;;;;;;;;;;;;5032189;28;1339;-76
2023/01/19 17:00:56;;;;;;;;;;;;;;;;;;5015584;28;1367;-76
2023/01/19 17:03:22;;;;;;;;;;;;;;;;;;5015694;28;1486;-78
2023/01/19 17:05:49;;;;;;;;;;;;;;;;;;5032438;28;1906;-76
2023/01/19 17:08:14;;;;;;;;;;;;;;;;;;5031728;28;1399;-76
2023/01/19 17:10:40;;;;;;;;;;;;;;;;;;5016125;28;1228;-76
2023/01/19 17:13:06;;;;;;;;;;;;;;;;;;5032041;28;885;-76
2023/01/19 17:15:31;;;;;;;;;;;;;;;;;;5033839;28;912;-75
2023/01/19 17:17:56;;;;;;;;;;;;;;;;;;5015398;28;1085;-74
2023/01/19 17:20:22;;;;;;;;;;;;;;;;;;5031818;28;1271;-75
2023/01/19 17:22:47;;;;;;;;;;;;;;;;;;5031547;28;1117;-75
2023/01/19 17:25:12;;;;;;;;;;;;;;;;;;5032123;28;1914;-74